Samos, Greece
Current Conditions -  °F | °C
As of 11:20 AM on Monday 26 Jan 2015 (Local Time) from LGSM Reporting Station
Broken Clouds Broken Clouds  
Wind Chill: 57°   Ceiling: 3000
Heat Index: 57°   Visibility: 6mi
Dew Point: 52°   Wind: 7mph
Humidity: 82%   Direction: 160°SSE
Pressure: 30.06"   Gusts: NA
Location:  37.76°N, 26.98°E
Report Text: LGSM 260820Z 16006KT 9999 SCT016 BKN030 BKN080 14/11 Q1018
Loading
Personal Weather Stations






























Interactive Weather Map New forecast layout! Learn more

10-Day Weather Forecast

Advertisements
Track Severe Weather on mobile